sensor_id;sensor_type;location;lat;lon;timestamp;temperature;humidity
23719;DHT22;43322;52.230;5.702;2022-08-19T00:01:22;18.30;99.90
23719;DHT22;43322;52.230;5.702;2022-08-19T00:03:49;18.20;99.90
23719;DHT22;43322;52.230;5.702;2022-08-19T00:06:16;18.10;99.90
23719;DHT22;43322;52.230;5.702;2022-08-19T00:08:44;18.30;99.90
23719;DHT22;43322;52.230;5.702;2022-08-19T00:11:11;18.30;99.90
23719;DHT22;43322;52.230;5.702;2022-08-19T00:13:38;18.40;99.90
23719;DHT22;43322;52.230;5.702;2022-08-19T00:16:07;18.30;99.90
23719;DHT22;43322;52.230;5.702;2022-08-19T00:18:34;18.20;99.90
23719;DHT22;43322;52.230;5.702;2022-08-19T00:21:01;18.10;99.90
23719;DHT22;43322;52.230;5.702;2022-08-19T00:23:28;18.10;99.90
23719;DHT22;43322;52.230;5.702;2022-08-19T00:25:55;18.00;99.90
23719;DHT22;43322;52.230;5.702;2022-08-19T00:28:22;18.00;99.90
23719;DHT22;43322;52.230;5.702;2022-08-19T00:30:49;17.90;99.90
23719;DHT22;43322;52.230;5.702;2022-08-19T00:33:18;17.80;99.90
23719;DHT22;43322;52.230;5.702;2022-08-19T00:35:45;17.90;99.90
23719;DHT22;43322;52.230;5.702;2022-08-19T00:38:12;17.80;99.90
23719;DHT22;43322;52.230;5.702;2022-08-19T00:40:39;17.80;99.90
23719;DHT22;43322;52.230;5.702;2022-08-19T00:43:09;17.80;99.90
23719;DHT22;43322;52.230;5.702;2022-08-19T00:45:40;17.70;99.90
23719;DHT22;43322;52.230;5.702;2022-08-19T00:48:09;17.70;99.90
23719;DHT22;43322;52.230;5.702;2022-08-19T00:50:39;17.70;99.90
23719;DHT22;43322;52.230;5.702;2022-08-19T00:53:09;17.90;99.90
23719;DHT22;43322;52.230;5.702;2022-08-19T00:55:37;17.70;99.90
23719;DHT22;43322;52.230;5.702;2022-08-19T00:58:07;17.70;99.90
23719;DHT22;43322;52.230;5.702;2022-08-19T01:00:36;17.50;99.90
23719;DHT22;43322;52.230;5.702;2022-08-19T01:03:04;17.50;99.90
23719;DHT22;43322;52.230;5.702;2022-08-19T01:05:31;17.50;99.90
23719;DHT22;43322;52.230;5.702;2022-08-19T01:08:02;17.40;99.90
23719;DHT22;43322;52.230;5.702;2022-08-19T01:10:32;17.50;99.90
23719;DHT22;43322;52.230;5.702;2022-08-19T01:13:01;17.60;99.90
23719;DHT22;43322;52.230;5.702;2022-08-19T01:15:31;17.50;99.90
23719;DHT22;43322;52.230;5.702;2022-08-19T01:18:01;17.50;99.90
23719;DHT22;43322;52.230;5.702;2022-08-19T01:20:29;17.50;99.90
23719;DHT22;43322;52.230;5.702;2022-08-19T01:22:58;17.40;99.90
23719;DHT22;43322;52.230;5.702;2022-08-19T01:25:29;17.40;99.90
23719;DHT22;43322;52.230;5.702;2022-08-19T01:27:57;17.40;99.90
23719;DHT22;43322;52.230;5.702;2022-08-19T01:30:26;17.40;99.90
23719;DHT22;43322;52.230;5.702;2022-08-19T01:32:54;17.30;99.90
23719;DHT22;43322;52.230;5.702;2022-08-19T01:35:24;17.70;99.90
23719;DHT22;43322;52.230;5.702;2022-08-19T01:37:54;17.30;99.90
23719;DHT22;43322;52.230;5.702;2022-08-19T01:40:26;17.20;99.90
23719;DHT22;43322;52.230;5.702;2022-08-19T01:42:54;17.20;99.90
23719;DHT22;43322;52.230;5.702;2022-08-19T01:45:24;17.30;99.90
23719;DHT22;43322;52.230;5.702;2022-08-19T01:47:51;17.30;99.90
23719;DHT22;43322;52.230;5.702;2022-08-19T01:50:18;17.20;99.90
23719;DHT22;43322;52.230;5.702;2022-08-19T01:52:45;17.20;99.90
23719;DHT22;43322;52.230;5.702;2022-08-19T01:55:16;17.20;99.90
23719;DHT22;43322;52.230;5.702;2022-08-19T01:57:48;17.40;99.90
23719;DHT22;43322;52.230;5.702;2022-08-19T02:00:18;17.80;99.90
23719;DHT22;43322;52.230;5.702;2022-08-19T02:02:45;17.20;99.90
23719;DHT22;43322;52.230;5.702;2022-08-19T02:05:13;17.50;99.90
23719;DHT22;43322;52.230;5.702;2022-08-19T02:07:44;17.00;99.90
23719;DHT22;43322;52.230;5.702;2022-08-19T02:10:18;17.00;99.90
23719;DHT22;43322;52.230;5.702;2022-08-19T02:12:47;17.00;99.90
23719;DHT22;43322;52.230;5.702;2022-08-19T02:15:15;17.00;99.90
23719;DHT22;43322;52.230;5.702;2022-08-19T02:17:42;16.90;99.90
23719;DHT22;43322;52.230;5.702;2022-08-19T02:20:10;17.10;99.90
23719;DHT22;43322;52.230;5.702;2022-08-19T02:22:38;17.00;99.90
23719;DHT22;43322;52.230;5.702;2022-08-19T02:25:07;17.00;99.90
23719;DHT22;43322;52.230;5.702;2022-08-19T02:27:35;17.00;99.90
23719;DHT22;43322;52.230;5.702;2022-08-19T02:30:05;17.00;99.90
23719;DHT22;43322;52.230;5.702;2022-08-19T02:32:58;17.00;99.90
23719;DHT22;43322;52.230;5.702;2022-08-19T02:35:25;17.00;99.90
23719;DHT22;43322;52.230;5.702;2022-08-19T02:37:51;16.90;99.90
23719;DHT22;43322;52.230;5.702;2022-08-19T02:40:36;16.90;99.90
23719;DHT22;43322;52.230;5.702;2022-08-19T02:43:04;17.00;99.90
23719;DHT22;43322;52.230;5.702;2022-08-19T02:45:34;16.90;99.90
23719;DHT22;43322;52.230;5.702;2022-08-19T02:48:01;16.90;99.90
23719;DHT22;43322;52.230;5.702;2022-08-19T02:50:29;16.90;99.90
23719;DHT22;43322;52.230;5.702;2022-08-19T02:52:56;16.90;99.90
23719;DHT22;43322;52.230;5.702;2022-08-19T02:55:23;16.90;99.90
23719;DHT22;43322;52.230;5.702;2022-08-19T02:57:50;16.90;99.90
23719;DHT22;43322;52.230;5.702;2022-08-19T03:00:17;16.90;99.90
23719;DHT22;43322;52.230;5.702;2022-08-19T03:02:45;16.80;99.90
23719;DHT22;43322;52.230;5.702;2022-08-19T03:05:14;16.90;99.90
23719;DHT22;43322;52.230;5.702;2022-08-19T03:07:41;16.80;99.90
23719;DHT22;43322;52.230;5.702;2022-08-19T03:10:08;16.70;99.90
23719;DHT22;43322;52.230;5.702;2022-08-19T03:12:36;16.70;99.90
23719;DHT22;43322;52.230;5.702;2022-08-19T03:15:04;16.70;99.90
23719;DHT22;43322;52.230;5.702;2022-08-19T03:17:33;16.60;99.90
23719;DHT22;43322;52.230;5.702;2022-08-19T03:20:02;16.60;99.90
23719;DHT22;43322;52.230;5.702;2022-08-19T03:22:29;16.70;99.90
23719;DHT22;43322;52.230;5.702;2022-08-19T03:24:56;16.60;99.90
23719;DHT22;43322;52.230;5.702;2022-08-19T03:27:24;16.70;99.90
23719;DHT22;43322;52.230;5.702;2022-08-19T03:29:51;16.70;99.90
23719;DHT22;43322;52.230;5.702;2022-08-19T03:32:18;16.70;99.90
23719;DHT22;43322;52.230;5.702;2022-08-19T03:34:45;16.70;99.90
23719;DHT22;43322;52.230;5.702;2022-08-19T03:37:13;16.80;99.90
23719;DHT22;43322;52.230;5.702;2022-08-19T03:39:41;16.70;99.90
23719;DHT22;43322;52.230;5.702;2022-08-19T03:42:09;16.90;99.90
23719;DHT22;43322;52.230;5.702;2022-08-19T03:44:36;16.80;99.90
23719;DHT22;43322;52.230;5.702;2022-08-19T03:47:05;16.80;99.90
23719;DHT22;43322;52.230;5.702;2022-08-19T03:49:33;16.70;99.90
23719;DHT22;43322;52.230;5.702;2022-08-19T03:52:01;16.70;99.90
23719;DHT22;43322;52.230;5.702;2022-08-19T03:54:29;16.70;99.90
23719;DHT22;43322;52.230;5.702;2022-08-19T03:56:57;16.70;99.90
23719;DHT22;43322;52.230;5.702;2022-08-19T03:59:26;16.60;99.90
23719;DHT22;43322;52.230;5.702;2022-08-19T04:01:54;16.60;99.90
23719;DHT22;43322;52.230;5.702;2022-08-19T04:04:21;16.70;99.90
23719;DHT22;43322;52.230;5.702;2022-08-19T04:06:48;16.70;99.90
23719;DHT22;43322;52.230;5.702;2022-08-19T04:09:17;16.80;99.90
23719;DHT22;43322;52.230;5.702;2022-08-19T04:11:47;16.70;99.90
23719;DHT22;43322;52.230;5.702;2022-08-19T04:14:17;16.70;99.90
23719;DHT22;43322;52.230;5.702;2022-08-19T04:16:45;16.70;99.90
23719;DHT22;43322;52.230;5.702;2022-08-19T04:19:12;16.70;99.90
23719;DHT22;43322;52.230;5.702;2022-08-19T04:21:40;16.80;99.90
23719;DHT22;43322;52.230;5.702;2022-08-19T04:24:09;16.60;99.90
23719;DHT22;43322;52.230;5.702;2022-08-19T04:26:36;16.50;99.90
23719;DHT22;43322;52.230;5.702;2022-08-19T04:29:07;16.50;99.90
23719;DHT22;43322;52.230;5.702;2022-08-19T04:31:35;16.50;99.90
23719;DHT22;43322;52.230;5.702;2022-08-19T04:34:03;16.40;99.90
23719;DHT22;43322;52.230;5.702;2022-08-19T04:36:33;16.30;99.90
23719;DHT22;43322;52.230;5.702;2022-08-19T04:39:03;16.50;99.90
23719;DHT22;43322;52.230;5.702;2022-08-19T04:41:31;16.50;99.90
23719;DHT22;43322;52.230;5.702;2022-08-19T04:44:16;16.40;99.90
23719;DHT22;43322;52.230;5.702;2022-08-19T04:46:44;16.40;99.90
23719;DHT22;43322;52.230;5.702;2022-08-19T04:49:11;16.30;99.90
23719;DHT22;43322;52.230;5.702;2022-08-19T04:51:40;16.30;99.90
23719;DHT22;43322;52.230;5.702;2022-08-19T04:54:09;16.20;99.90
23719;DHT22;43322;52.230;5.702;2022-08-19T04:56:36;16.20;99.90
23719;DHT22;43322;52.230;5.702;2022-08-19T04:59:03;16.20;99.90
23719;DHT22;43322;52.230;5.702;2022-08-19T05:01:33;16.20;99.90
23719;DHT22;43322;52.230;5.702;2022-08-19T05:04:01;16.10;99.90
23719;DHT22;43322;52.230;5.702;2022-08-19T05:06:28;16.10;99.90
23719;DHT22;43322;52.230;5.702;2022-08-19T05:08:59;16.10;99.90
23719;DHT22;43322;52.230;5.702;2022-08-19T05:11:28;16.10;99.90
23719;DHT22;43322;52.230;5.702;2022-08-19T05:13:55;16.10;99.90
23719;DHT22;43322;52.230;5.702;2022-08-19T05:16:24;16.20;99.90
23719;DHT22;43322;52.230;5.702;2022-08-19T05:18:53;16.20;99.90
23719;DHT22;43322;52.230;5.702;2022-08-19T05:21:38;16.30;99.90
23719;DHT22;43322;52.230;5.702;2022-08-19T05:24:23;16.30;99.90
23719;DHT22;43322;52.230;5.702;2022-08-19T05:26:51;16.40;99.90
23719;DHT22;43322;52.230;5.702;2022-08-19T05:29:23;16.40;99.90
23719;DHT22;43322;52.230;5.702;2022-08-19T05:31:50;16.50;99.90
23719;DHT22;43322;52.230;5.702;2022-08-19T05:34:20;16.60;99.90
23719;DHT22;43322;52.230;5.702;2022-08-19T05:36:49;16.60;99.90
23719;DHT22;43322;52.230;5.702;2022-08-19T05:39:19;16.60;99.90
23719;DHT22;43322;52.230;5.702;2022-08-19T05:41:48;16.70;99.90
23719;DHT22;43322;52.230;5.702;2022-08-19T05:44:16;16.70;99.90
23719;DHT22;43322;52.230;5.702;2022-08-19T05:46:43;16.70;99.90
23719;DHT22;43322;52.230;5.702;2022-08-19T05:49:13;16.70;99.90
23719;DHT22;43322;52.230;5.702;2022-08-19T05:51:42;16.80;99.90
23719;DHT22;43322;52.230;5.702;2022-08-19T05:54:09;16.90;99.90
23719;DHT22;43322;52.230;5.702;2022-08-19T05:56:39;16.90;99.90
23719;DHT22;43322;52.230;5.702;2022-08-19T05:59:07;17.00;99.90
23719;DHT22;43322;52.230;5.702;2022-08-19T06:01:36;17.10;99.90
23719;DHT22;43322;52.230;5.702;2022-08-19T06:04:03;17.10;99.90
23719;DHT22;43322;52.230;5.702;2022-08-19T06:06:30;17.20;99.90
23719;DHT22;43322;52.230;5.702;2022-08-19T06:09:01;17.30;99.90
23719;DHT22;43322;52.230;5.702;2022-08-19T06:11:34;17.30;99.90
23719;DHT22;43322;52.230;5.702;2022-08-19T06:14:03;17.50;99.90
23719;DHT22;43322;52.230;5.702;2022-08-19T06:16:30;17.50;99.90
23719;DHT22;43322;52.230;5.702;2022-08-19T06:19:02;17.30;99.90
23719;DHT22;43322;52.230;5.702;2022-08-19T06:21:30;17.50;99.90
23719;DHT22;43322;52.230;5.702;2022-08-19T06:24:00;17.60;99.90
23719;DHT22;43322;52.230;5.702;2022-08-19T06:26:28;17.60;99.90
23719;DHT22;43322;52.230;5.702;2022-08-19T06:28:54;17.70;99.90
23719;DHT22;43322;52.230;5.702;2022-08-19T06:31:24;17.80;99.90
23719;DHT22;43322;52.230;5.702;2022-08-19T06:33:51;17.90;99.90
23719;DHT22;43322;52.230;5.702;2022-08-19T06:36:21;17.90;99.90
23719;DHT22;43322;52.230;5.702;2022-08-19T06:38:49;18.00;99.90
23719;DHT22;43322;52.230;5.702;2022-08-19T06:41:18;18.70;99.90
23719;DHT22;43322;52.230;5.702;2022-08-19T06:43:45;18.40;99.90
23719;DHT22;43322;52.230;5.702;2022-08-19T06:46:12;18.60;99.90
23719;DHT22;43322;52.230;5.702;2022-08-19T06:48:40;18.30;99.90
23719;DHT22;43322;52.230;5.702;2022-08-19T06:51:07;18.50;99.90
23719;DHT22;43322;52.230;5.702;2022-08-19T06:53:34;18.50;99.90
23719;DHT22;43322;52.230;5.702;2022-08-19T06:56:01;18.60;99.90
23719;DHT22;43322;52.230;5.702;2022-08-19T06:58:31;18.70;99.90
23719;DHT22;43322;52.230;5.702;2022-08-19T07:01:00;18.70;99.90
23719;DHT22;43322;52.230;5.702;2022-08-19T07:03:29;18.80;99.90
23719;DHT22;43322;52.230;5.702;2022-08-19T07:05:56;18.80;99.90
23719;DHT22;43322;52.230;5.702;2022-08-19T07:08:24;18.80;99.90
23719;DHT22;43322;52.230;5.702;2022-08-19T07:10:52;18.90;99.90
23719;DHT22;43322;52.230;5.702;2022-08-19T07:13:20;19.00;99.90
23719;DHT22;43322;52.230;5.702;2022-08-19T07:15:49;19.00;99.90
23719;DHT22;43322;52.230;5.702;2022-08-19T07:18:17;19.20;99.90
23719;DHT22;43322;52.230;5.702;2022-08-19T07:20:45;19.20;99.90
23719;DHT22;43322;52.230;5.702;2022-08-19T07:23:13;19.20;99.90
23719;DHT22;43322;52.230;5.702;2022-08-19T07:25:40;19.10;99.90
23719;DHT22;43322;52.230;5.702;2022-08-19T07:28:08;19.10;99.90
23719;DHT22;43322;52.230;5.702;2022-08-19T07:30:38;19.20;99.90
23719;DHT22;43322;52.230;5.702;2022-08-19T07:33:07;19.30;99.90
23719;DHT22;43322;52.230;5.702;2022-08-19T07:35:34;19.30;99.90
23719;DHT22;43322;52.230;5.702;2022-08-19T07:38:01;19.40;99.90
23719;DHT22;43322;52.230;5.702;2022-08-19T07:40:30;19.80;99.90
23719;DHT22;43322;52.230;5.702;2022-08-19T07:42:57;19.80;99.90
23719;DHT22;43322;52.230;5.702;2022-08-19T07:45:24;19.90;99.90
23719;DHT22;43322;52.230;5.702;2022-08-19T07:47:51;20.00;99.90
23719;DHT22;43322;52.230;5.702;2022-08-19T07:50:20;20.10;99.90
23719;DHT22;43322;52.230;5.702;2022-08-19T07:52:48;20.00;99.90
23719;DHT22;43322;52.230;5.702;2022-08-19T07:55:18;19.90;99.90
23719;DHT22;43322;52.230;5.702;2022-08-19T07:57:45;19.90;99.90
23719;DHT22;43322;52.230;5.702;2022-08-19T08:00:13;20.00;99.90
23719;DHT22;43322;52.230;5.702;2022-08-19T08:02:40;19.70;99.90
23719;DHT22;43322;52.230;5.702;2022-08-19T08:05:08;19.70;99.90
23719;DHT22;43322;52.230;5.702;2022-08-19T08:07:54;19.80;99.90
23719;DHT22;43322;52.230;5.702;2022-08-19T08:10:38;19.90;99.90
23719;DHT22;43322;52.230;5.702;2022-08-19T08:13:05;20.10;99.90
23719;DHT22;43322;52.230;5.702;2022-08-19T08:15:32;20.20;99.90
23719;DHT22;43322;52.230;5.702;2022-08-19T08:17:59;20.00;99.90
23719;DHT22;43322;52.230;5.702;2022-08-19T08:20:26;20.10;99.90
23719;DHT22;43322;52.230;5.702;2022-08-19T08:22:55;20.10;99.90
23719;DHT22;43322;52.230;5.702;2022-08-19T08:25:39;20.30;99.90
23719;DHT22;43322;52.230;5.702;2022-08-19T08:28:06;20.10;99.90
23719;DHT22;43322;52.230;5.702;2022-08-19T08:30:34;20.30;99.90
23719;DHT22;43322;52.230;5.702;2022-08-19T08:33:03;20.50;99.90
23719;DHT22;43322;52.230;5.702;2022-08-19T08:35:30;21.00;99.90
23719;DHT22;43322;52.230;5.702;2022-08-19T08:38:00;21.50;99.90
23719;DHT22;43322;52.230;5.702;2022-08-19T08:40:33;21.70;99.90
23719;DHT22;43322;52.230;5.702;2022-08-19T08:43:09;21.70;99.90
23719;DHT22;43322;52.230;5.702;2022-08-19T08:45:44;21.30;99.90
23719;DHT22;43322;52.230;5.702;2022-08-19T08:48:19;21.70;99.90
23719;DHT22;43322;52.230;5.702;2022-08-19T08:50:48;22.00;99.90
23719;DHT22;43322;52.230;5.702;2022-08-19T08:53:19;22.30;99.90
23719;DHT22;43322;52.230;5.702;2022-08-19T08:55:47;22.30;99.90
23719;DHT22;43322;52.230;5.702;2022-08-19T08:58:17;22.30;99.90
23719;DHT22;43322;52.230;5.702;2022-08-19T09:00:48;22.00;99.90
23719;DHT22;43322;52.230;5.702;2022-08-19T09:03:19;21.70;99.90
23719;DHT22;43322;52.230;5.702;2022-08-19T09:05:55;21.90;99.90
23719;DHT22;43322;52.230;5.702;2022-08-19T09:08:33;21.90;99.90
23719;DHT22;43322;52.230;5.702;2022-08-19T09:11:07;21.90;99.90
23719;DHT22;43322;52.230;5.702;2022-08-19T09:13:42;21.70;99.90
23719;DHT22;43322;52.230;5.702;2022-08-19T09:16:16;21.60;99.90
23719;DHT22;43322;52.230;5.702;2022-08-19T09:18:46;21.50;99.90
23719;DHT22;43322;52.230;5.702;2022-08-19T09:21:14;21.40;99.90
23719;DHT22;43322;52.230;5.702;2022-08-19T09:23:43;21.30;99.90
23719;DHT22;43322;52.230;5.702;2022-08-19T09:26:11;21.10;99.90
23719;DHT22;43322;52.230;5.702;2022-08-19T09:28:39;21.00;99.90
23719;DHT22;43322;52.230;5.702;2022-08-19T09:31:09;21.00;99.90
23719;DHT22;43322;52.230;5.702;2022-08-19T09:33:36;20.90;99.90
23719;DHT22;43322;52.230;5.702;2022-08-19T09:36:06;21.10;99.90
23719;DHT22;43322;52.230;5.702;2022-08-19T09:38:34;21.20;99.90
23719;DHT22;43322;52.230;5.702;2022-08-19T09:41:08;21.10;99.90
23719;DHT22;43322;52.230;5.702;2022-08-19T09:43:37;21.20;99.90
23719;DHT22;43322;52.230;5.702;2022-08-19T09:46:05;21.20;99.90
23719;DHT22;43322;52.230;5.702;2022-08-19T09:48:35;21.20;99.90
23719;DHT22;43322;52.230;5.702;2022-08-19T09:51:04;21.30;99.90
23719;DHT22;43322;52.230;5.702;2022-08-19T09:53:33;21.60;99.90
23719;DHT22;43322;52.230;5.702;2022-08-19T09:56:00;21.70;99.90
23719;DHT22;43322;52.230;5.702;2022-08-19T09:58:28;21.70;99.90
23719;DHT22;43322;52.230;5.702;2022-08-19T10:00:56;22.00;99.90
23719;DHT22;43322;52.230;5.702;2022-08-19T10:03:24;22.50;99.90
23719;DHT22;43322;52.230;5.702;2022-08-19T10:05:52;22.70;99.90
23719;DHT22;43322;52.230;5.702;2022-08-19T10:08:21;22.90;99.90
23719;DHT22;43322;52.230;5.702;2022-08-19T10:10:49;23.60;99.90
23719;DHT22;43322;52.230;5.702;2022-08-19T10:13:19;24.10;99.90
23719;DHT22;43322;52.230;5.702;2022-08-19T10:15:49;24.30;99.90
23719;DHT22;43322;52.230;5.702;2022-08-19T10:18:18;24.80;99.90
23719;DHT22;43322;52.230;5.702;2022-08-19T10:20:49;25.30;99.90
23719;DHT22;43322;52.230;5.702;2022-08-19T10:23:17;25.80;99.90
23719;DHT22;43322;52.230;5.702;2022-08-19T10:25:43;26.10;99.90
23719;DHT22;43322;52.230;5.702;2022-08-19T10:28:10;26.60;99.90
23719;DHT22;43322;52.230;5.702;2022-08-19T10:30:39;26.60;99.90
23719;DHT22;43322;52.230;5.702;2022-08-19T10:33:07;26.90;99.90
23719;DHT22;43322;52.230;5.702;2022-08-19T10:35:34;27.30;99.90
23719;DHT22;43322;52.230;5.702;2022-08-19T10:38:01;27.50;99.90
23719;DHT22;43322;52.230;5.702;2022-08-19T10:40:28;27.70;99.90
23719;DHT22;43322;52.230;5.702;2022-08-19T10:42:55;28.10;99.90
23719;DHT22;43322;52.230;5.702;2022-08-19T10:45:22;28.50;99.90
23719;DHT22;43322;52.230;5.702;2022-08-19T10:47:51;28.60;99.90
23719;DHT22;43322;52.230;5.702;2022-08-19T10:50:20;28.30;99.90
23719;DHT22;43322;52.230;5.702;2022-08-19T10:53:06;28.50;99.90
23719;DHT22;43322;52.230;5.702;2022-08-19T10:55:34;27.30;99.90
23719;DHT22;43322;52.230;5.702;2022-08-19T10:58:21;27.10;99.90
23719;DHT22;43322;52.230;5.702;2022-08-19T11:00:52;28.00;99.90
23719;DHT22;43322;52.230;5.702;2022-08-19T11:03:20;28.30;99.90
23719;DHT22;43322;52.230;5.702;2022-08-19T11:05:57;28.20;99.90
23719;DHT22;43322;52.230;5.702;2022-08-19T11:08:23;28.90;99.90
23719;DHT22;43322;52.230;5.702;2022-08-19T11:10:54;29.30;99.90
23719;DHT22;43322;52.230;5.702;2022-08-19T11:13:22;28.90;99.90
23719;DHT22;43322;52.230;5.702;2022-08-19T11:15:56;29.40;99.90
23719;DHT22;43322;52.230;5.702;2022-08-19T11:18:23;29.70;99.90
23719;DHT22;43322;52.230;5.702;2022-08-19T11:20:52;29.30;99.90
23719;DHT22;43322;52.230;5.702;2022-08-19T11:23:19;29.70;99.90
23719;DHT22;43322;52.230;5.702;2022-08-19T11:25:46;29.80;99.90
23719;DHT22;43322;52.230;5.702;2022-08-19T11:28:13;28.80;99.90
23719;DHT22;43322;52.230;5.702;2022-08-19T11:30:40;27.60;99.90
23719;DHT22;43322;52.230;5.702;2022-08-19T11:33:07;27.10;99.90
23719;DHT22;43322;52.230;5.702;2022-08-19T11:35:39;28.00;99.90
23719;DHT22;43322;52.230;5.702;2022-08-19T11:38:08;29.20;99.90
23719;DHT22;43322;52.230;5.702;2022-08-19T11:40:36;29.20;99.90
23719;DHT22;43322;52.230;5.702;2022-08-19T11:43:03;29.90;99.90
23719;DHT22;43322;52.230;5.702;2022-08-19T11:45:30;30.30;99.90
23719;DHT22;43322;52.230;5.702;2022-08-19T11:47:57;29.80;99.90
23719;DHT22;43322;52.230;5.702;2022-08-19T11:50:24;28.60;99.90
23719;DHT22;43322;52.230;5.702;2022-08-19T11:52:54;28.40;99.90
23719;DHT22;43322;52.230;5.702;2022-08-19T11:55:23;28.70;99.90
23719;DHT22;43322;52.230;5.702;2022-08-19T11:57:50;29.50;99.90
23719;DHT22;43322;52.230;5.702;2022-08-19T12:00:17;29.10;99.90
23719;DHT22;43322;52.230;5.702;2022-08-19T12:02:45;29.00;99.90
23719;DHT22;43322;52.230;5.702;2022-08-19T12:05:12;28.50;99.90
23719;DHT22;43322;52.230;5.702;2022-08-19T12:07:40;29.30;99.90
23719;DHT22;43322;52.230;5.702;2022-08-19T12:10:09;30.30;99.90
23719;DHT22;43322;52.230;5.702;2022-08-19T12:12:38;30.90;99.90
23719;DHT22;43322;52.230;5.702;2022-08-19T12:15:08;30.70;99.90
23719;DHT22;43322;52.230;5.702;2022-08-19T12:17:36;31.10;99.90
23719;DHT22;43322;52.230;5.702;2022-08-19T12:20:04;30.30;99.90
23719;DHT22;43322;52.230;5.702;2022-08-19T12:22:31;29.90;99.90
23719;DHT22;43322;52.230;5.702;2022-08-19T12:24:58;30.80;99.90
23719;DHT22;43322;52.230;5.702;2022-08-19T12:27:26;30.40;99.90
23719;DHT22;43322;52.230;5.702;2022-08-19T12:29:54;29.90;99.90
23719;DHT22;43322;52.230;5.702;2022-08-19T12:32:21;30.30;99.90
23719;DHT22;43322;52.230;5.702;2022-08-19T12:34:48;29.50;99.90
23719;DHT22;43322;52.230;5.702;2022-08-19T12:37:15;29.70;99.90
23719;DHT22;43322;52.230;5.702;2022-08-19T12:39:43;28.80;99.90
23719;DHT22;43322;52.230;5.702;2022-08-19T12:42:10;28.30;99.90
23719;DHT22;43322;52.230;5.702;2022-08-19T12:44:39;27.90;99.90
23719;DHT22;43322;52.230;5.702;2022-08-19T12:47:09;27.40;99.90
23719;DHT22;43322;52.230;5.702;2022-08-19T12:49:37;27.20;99.90
23719;DHT22;43322;52.230;5.702;2022-08-19T12:52:06;26.80;99.90
23719;DHT22;43322;52.230;5.702;2022-08-19T12:54:33;26.80;99.90
23719;DHT22;43322;52.230;5.702;2022-08-19T12:57:04;26.70;99.90
23719;DHT22;43322;52.230;5.702;2022-08-19T12:59:31;26.70;99.90
23719;DHT22;43322;52.230;5.702;2022-08-19T13:01:59;26.80;99.90
23719;DHT22;43322;52.230;5.702;2022-08-19T13:04:27;26.70;99.90
23719;DHT22;43322;52.230;5.702;2022-08-19T13:06:54;26.20;99.90
23719;DHT22;43322;52.230;5.702;2022-08-19T13:09:21;25.90;99.90
23719;DHT22;43322;52.230;5.702;2022-08-19T13:11:47;25.70;99.90
23719;DHT22;43322;52.230;5.702;2022-08-19T13:14:14;25.20;99.90
23719;DHT22;43322;52.230;5.702;2022-08-19T13:16:41;24.90;99.90
23719;DHT22;43322;52.230;5.702;2022-08-19T13:19:08;24.40;99.90
23719;DHT22;43322;52.230;5.702;2022-08-19T13:21:37;23.80;99.90
23719;DHT22;43322;52.230;5.702;2022-08-19T13:24:04;23.40;99.90
23719;DHT22;43322;52.230;5.702;2022-08-19T13:26:31;23.20;99.90
23719;DHT22;43322;52.230;5.702;2022-08-19T13:28:58;23.00;99.90
23719;DHT22;43322;52.230;5.702;2022-08-19T13:31:42;22.80;99.90
23719;DHT22;43322;52.230;5.702;2022-08-19T13:34:29;22.50;99.90
23719;DHT22;43322;52.230;5.702;2022-08-19T13:36:58;22.40;99.90
23719;DHT22;43322;52.230;5.702;2022-08-19T13:39:25;22.40;99.90
23719;DHT22;43322;52.230;5.702;2022-08-19T13:41:52;22.60;99.90
23719;DHT22;43322;52.230;5.702;2022-08-19T13:44:19;22.60;99.90
23719;DHT22;43322;52.230;5.702;2022-08-19T13:46:47;23.00;99.90
23719;DHT22;43322;52.230;5.702;2022-08-19T13:49:16;23.30;99.90
23719;DHT22;43322;52.230;5.702;2022-08-19T13:51:43;23.50;99.90
23719;DHT22;43322;52.230;5.702;2022-08-19T13:54:13;23.60;99.90
23719;DHT22;43322;52.230;5.702;2022-08-19T13:56:41;23.60;99.90
23719;DHT22;43322;52.230;5.702;2022-08-19T13:59:09;23.50;99.90
23719;DHT22;43322;52.230;5.702;2022-08-19T14:01:36;23.50;99.90
23719;DHT22;43322;52.230;5.702;2022-08-19T14:04:03;23.40;99.90
23719;DHT22;43322;52.230;5.702;2022-08-19T14:06:31;23.30;99.90
23719;DHT22;43322;52.230;5.702;2022-08-19T14:08:58;23.20;99.90
23719;DHT22;43322;52.230;5.702;2022-08-19T14:11:28;23.20;99.90
23719;DHT22;43322;52.230;5.702;2022-08-19T14:13:55;23.60;99.90
23719;DHT22;43322;52.230;5.702;2022-08-19T14:16:22;22.90;99.90
23719;DHT22;43322;52.230;5.702;2022-08-19T14:18:50;22.80;99.90
23719;DHT22;43322;52.230;5.702;2022-08-19T14:21:19;22.70;99.90
23719;DHT22;43322;52.230;5.702;2022-08-19T14:23:47;22.60;99.90
23719;DHT22;43322;52.230;5.702;2022-08-19T14:26:16;22.50;99.90
23719;DHT22;43322;52.230;5.702;2022-08-19T14:28:45;22.50;99.90
23719;DHT22;43322;52.230;5.702;2022-08-19T14:31:14;22.50;99.90
23719;DHT22;43322;52.230;5.702;2022-08-19T14:33:44;22.40;99.90
23719;DHT22;43322;52.230;5.702;2022-08-19T14:36:11;22.40;99.90
23719;DHT22;43322;52.230;5.702;2022-08-19T14:38:38;22.30;99.90
23719;DHT22;43322;52.230;5.702;2022-08-19T14:41:09;22.40;99.90
23719;DHT22;43322;52.230;5.702;2022-08-19T14:43:37;22.30;99.90
23719;DHT22;43322;52.230;5.702;2022-08-19T14:46:05;22.30;99.90
23719;DHT22;43322;52.230;5.702;2022-08-19T14:48:33;22.30;99.90
23719;DHT22;43322;52.230;5.702;2022-08-19T14:51:01;22.30;99.90
23719;DHT22;43322;52.230;5.702;2022-08-19T14:53:28;22.30;99.90
23719;DHT22;43322;52.230;5.702;2022-08-19T14:55:55;22.30;99.90
23719;DHT22;43322;52.230;5.702;2022-08-19T14:58:22;23.00;99.90
23719;DHT22;43322;52.230;5.702;2022-08-19T15:00:49;22.50;99.90
23719;DHT22;43322;52.230;5.702;2022-08-19T15:03:18;22.50;99.90
23719;DHT22;43322;52.230;5.702;2022-08-19T15:05:45;22.50;99.90
23719;DHT22;43322;52.230;5.702;2022-08-19T15:08:11;22.60;99.90
23719;DHT22;43322;52.230;5.702;2022-08-19T15:10:39;22.50;99.90
23719;DHT22;43322;52.230;5.702;2022-08-19T15:13:06;22.60;99.90
23719;DHT22;43322;52.230;5.702;2022-08-19T15:15:33;22.60;99.90
23719;DHT22;43322;52.230;5.702;2022-08-19T15:18:01;22.80;99.90
23719;DHT22;43322;52.230;5.702;2022-08-19T15:20:30;22.80;99.90
23719;DHT22;43322;52.230;5.702;2022-08-19T15:22:58;22.80;99.90
23719;DHT22;43322;52.230;5.702;2022-08-19T15:25:25;22.70;99.90
23719;DHT22;43322;52.230;5.702;2022-08-19T15:27:53;22.80;99.90
23719;DHT22;43322;52.230;5.702;2022-08-19T15:30:22;22.80;99.90
23719;DHT22;43322;52.230;5.702;2022-08-19T15:32:50;22.70;99.90
23719;DHT22;43322;52.230;5.702;2022-08-19T15:35:18;22.70;99.90
23719;DHT22;43322;52.230;5.702;2022-08-19T15:37:48;22.70;99.90
23719;DHT22;43322;52.230;5.702;2022-08-19T15:40:16;22.80;99.90